x

South Bass Island, Oh (sbio1) Weather Station

10:00pm - Sat 21st Oct 2017 All times are CDT. -5 hours from GMT.

  • Wind
    15mph, 17mph gusts
  • Air Temp 66°f
  • Sea Pressure 1021.9mb
  • South Bass Island, Oh
  • South Bass Island, Oh

More Historic Weather Station data

Upgrade to MSW Pro to gain access to the past 30 days of data for over 8000 Wavebouys and Weather Stations around the globe.

Join

Comparision Forecast

View Surf forecast
   
Sat 10/21 10:00pm 15 17 mph 1021.9mb 66f
8:00pm 14 16 mph 1021.8mb 67f
7:00pm 16 16 mph 1021.8mb 67f
6:00pm 14 14 mph 1021.6mb 67f
5:00pm 13 13 mph 1021.2mb 67f
4:00pm 11 13 mph 1021.2mb 68f
3:00pm 6 7 mph 1021.7mb 69f
2:00pm 8 8 mph 1022.1mb 68f
1:00pm 5 6 mph 1022.3mb 69f
12:00pm 3 6 mph 1023.1mb 68f
11:00am 6 7 mph 1023.8mb 65f
10:00am 7 9 mph 1024mb 63f
9:00am 7 9 mph 1024.1mb 62f
8:00am 5 6 mph 1024.2mb 60f
7:00am 7 9 mph 1023.6mb 59f
6:00am 8 9 mph 1023.3mb 60f
5:00am 8 10 mph 1022.8mb 60f
4:00am 9 10 mph 1022.2mb 62f
3:00am 10 11 mph 1021.9mb 61f
2:00am 10 13 mph 1022.1mb 61f
1:00am 13 14 mph 1021.8mb 62f
12:00am 13 15 mph 1021.7mb 63f
Fri 10/20 11:00pm 14 15 mph 1021.6mb 64f
10:00pm 13 14 mph 1021.5mb 65f
9:00pm 14 14 mph 1021.3mb 65f
8:00pm 13 13 mph 1021.4mb 65f
7:00pm 8 8 mph 1021.6mb 64f
6:00pm 8 8 mph 1021.4mb 65f
5:00pm 10 11 mph 1021.1mb 66f
4:00pm 6 8 mph 1021.6mb 68f
3:00pm 6 7 mph 1022.4mb 69f
2:00pm 5 7 mph 1023mb 67f
1:00pm 2 3 mph 1023.9mb 68f
12:00pm 3 6 mph 1024.8mb 65f
11:00am 8 11 mph 1025.4mb 62f
9:00am 5 8 mph 1025.9mb 56f
8:00am 3 7 mph 1025.6mb 57f
7:00am  -  2 mph 1024.9mb 57f
6:00am 5 7 mph 1024.9mb 56f
5:00am 2 2 mph 1024.3mb 57f
4:00am 3 3 mph 1023.8mb 58f
3:00am 6 8 mph 1023mb 58f
2:00am 11 14 mph 1022.8mb 60f
1:00am 16 18 mph 1022.6mb 61f
12:00am 17 18 mph 1022mb 62f
Thu 10/19 11:00pm 14 15 mph 1021.7mb 63f
10:00pm 11 13 mph 1021.5mb 63f
9:00pm 10 11 mph 1021.3mb 63f
8:00pm 11 14 mph 1020.9mb 64f
7:00pm 14 15 mph 1020.4mb 65f
6:00pm 13 15 mph 1020mb 66f
5:00pm 17 20 mph 1019.3mb 67f
4:00pm 21 22 mph 1019.2mb 68f
3:00pm 16 17 mph 1019.3mb 67f
2:00pm 6 6 mph 1019.3mb 64f
1:00pm 9 10 mph 1020.1mb 64f
12:00pm 13 14 mph 1020.4mb 64f
11:00am 18 20 mph 1020.1mb 62f
10:00am 22 23 mph 1020.2mb 60f
9:00am 22 24 mph 1020.2mb 58f
8:00am 25 26 mph 1019.7mb 57f
7:00am 23 28 mph 1019.3mb 57f
6:00am 22 26 mph 1019.1mb 57f
5:00am 23 28 mph 1019.3mb 58f
4:00am 16 23 mph 1019.3mb 58f
3:00am 20 24 mph 1019.7mb 59f
2:00am 16 21 mph 1019.7mb 59f
1:00am 14 21 mph 1020.2mb 59f
12:00am 18 23 mph 1020.3mb 60f
Wed 10/18 11:00pm 9 15 mph 1020.4mb 60f
10:00pm 14 20 mph 1020.3mb 61f
9:00pm 16 18 mph 1020.2mb 62f
8:00pm 18 20 mph 1020.3mb 64f
7:00pm 15 17 mph 1020.4mb 65f
6:00pm 15 16 mph 1020.3mb 67f
5:00pm 13 15 mph 1020.6mb 68f
4:00pm 13 15 mph 1020.7mb 69f
3:00pm 9 13 mph 1021.4mb 68f
2:00pm 11 15 mph 1022.3mb 66f
1:00pm 14 16 mph 1023.2mb 64f
12:00pm 8 11 mph 1024.6mb 63f
11:00am 6 8 mph 1025.4mb 60f
10:00am 7 13 mph 1025.5mb 57f
9:00am 8 11 mph 1025.5mb 56f
8:00am 9 14 mph 1025.5mb 55f
7:00am 11 15 mph 1025.2mb 55f
6:00am 13 16 mph 1025.3mb 56f
5:00am 15 18 mph 1024.7mb 56f